الصفحة الرئيسية
METAR-TAF:

METAR-TAF

مطار :

مطار وجدة أنجاد

وجدة, المغرب

دائرة عرض: 34-47N, خط طول: 001-56W, ارتفاع: 468 متر

مراقبة الطقس الحالي

تاريخ ووقت الإصدار 34 دقيقة قبل الساعة 11:30UTC
ريح 5 عقدة من الجنوب الشرقي, الاتجاه يتراوح بين الشرق و الجنوب
درجة الحرارة 17°درجة مئوية
الرطوبة 59%
ضغط 1026 hPa
الرؤية 10 كم أو أكثر
غيوم متفرقة على ارتفاع 2600 قدم
غيوم متفرقة على ارتفاع 5000 قدم

METAR: GMFO 261130Z 14005KT 100V180 9999 SCT026 SCT050 17/09 Q1026 NOSIG

زمن: 13:04 (12:04 UTC)

توقعات

تاريخ ووقت الإصدار 1ساعة و 4 دقيقة قبل الساعة 11:00UTC
التوقعات صالحة من26 الساعة 12 UTC إلى 27 الساعة 18 UTC
ريح 9 عقدة من الغرب/الجنوب الغربي
الرؤية 10 كم أو أكثر
غيوم متفرقة على ارتفاع 2600 قدم
غيوم متفرقة على ارتفاع 5000 قدم

TAF: GMFO 261100Z 2612/2718 24009KT 9999 SCT026 SCT050

أرصاد الطقس والتوقعات من أكثر من 4000 مطار (تقارير الطقس للمطار METAR والتنبؤ بالطقس بالمطارTAF).

المحطات المتاحة هي النقط الصفراء والحمراء على الخريطة.

حرك المؤشر فوق النقطة لمعرفة اسم المحطة.

ثم انقر لمعرفة أرصاد وتوقعات الطقس.

لتغيير الخارطة: اضغط على الأزرار الخضراء مع رمز الصليب الأسود للتكبير. على الزر الأخضر مع شرطة للتصغير، أو على الأسهم الخضراء للخرائط المجاورة.


METAR-TAF: